sensor_id;sensor_type;location;lat;lon;timestamp;P1;durP1;ratioP1;P2;durP2;ratioP2
28176;SDS011;15461;41.652;9.378;2024-03-08T00:01:10;1.90;;;0.82;;
28176;SDS011;15461;41.652;9.378;2024-03-08T00:03:35;2.90;;;0.90;;
28176;SDS011;15461;41.652;9.378;2024-03-08T00:06:01;2.53;;;0.93;;
28176;SDS011;15461;41.652;9.378;2024-03-08T00:08:27;1.33;;;0.70;;
28176;SDS011;15461;41.652;9.378;2024-03-08T00:10:53;0.65;;;0.60;;
28176;SDS011;15461;41.652;9.378;2024-03-08T00:13:19;3.85;;;0.70;;
28176;SDS011;15461;41.652;9.378;2024-03-08T00:15:45;3.72;;;1.17;;
28176;SDS011;15461;41.652;9.378;2024-03-08T00:18:12;2.88;;;0.90;;
28176;SDS011;15461;41.652;9.378;2024-03-08T00:20:38;1.30;;;0.77;;
28176;SDS011;15461;41.652;9.378;2024-03-08T00:23:04;3.30;;;1.13;;
28176;SDS011;15461;41.652;9.378;2024-03-08T00:25:29;2.35;;;1.13;;
28176;SDS011;15461;41.652;9.378;2024-03-08T00:27:55;4.35;;;0.93;;
28176;SDS011;15461;41.652;9.378;2024-03-08T00:30:22;0.80;;;0.60;;
28176;SDS011;15461;41.652;9.378;2024-03-08T00:32:48;0.82;;;0.73;;
28176;SDS011;15461;41.652;9.378;2024-03-08T00:35:14;3.17;;;1.00;;
28176;SDS011;15461;41.652;9.378;2024-03-08T00:37:40;2.08;;;0.80;;
28176;SDS011;15461;41.652;9.378;2024-03-08T00:40:12;0.60;;;0.60;;
28176;SDS011;15461;41.652;9.378;2024-03-08T00:42:38;4.38;;;0.82;;
28176;SDS011;15461;41.652;9.378;2024-03-08T00:45:05;1.75;;;1.27;;
28176;SDS011;15461;41.652;9.378;2024-03-08T00:47:31;0.82;;;0.68;;
28176;SDS011;15461;41.652;9.378;2024-03-08T00:49:57;5.20;;;1.25;;
28176;SDS011;15461;41.652;9.378;2024-03-08T00:52:22;3.13;;;0.77;;
28176;SDS011;15461;41.652;9.378;2024-03-08T00:54:52;3.97;;;0.70;;
28176;SDS011;15461;41.652;9.378;2024-03-08T00:57:18;3.28;;;0.60;;
28176;SDS011;15461;41.652;9.378;2024-03-08T00:59:44;2.38;;;0.85;;
28176;SDS011;15461;41.652;9.378;2024-03-08T01:02:10;7.70;;;0.90;;
28176;SDS011;15461;41.652;9.378;2024-03-08T01:04:36;2.25;;;0.90;;
28176;SDS011;15461;41.652;9.378;2024-03-08T01:07:02;6.13;;;0.90;;
28176;SDS011;15461;41.652;9.378;2024-03-08T01:09:28;1.15;;;0.77;;
28176;SDS011;15461;41.652;9.378;2024-03-08T01:11:54;1.50;;;0.85;;
28176;SDS011;15461;41.652;9.378;2024-03-08T01:14:20;2.08;;;0.80;;
28176;SDS011;15461;41.652;9.378;2024-03-08T01:16:56;4.65;;;1.15;;
28176;SDS011;15461;41.652;9.378;2024-03-08T01:19:22;5.88;;;0.80;;
28176;SDS011;15461;41.652;9.378;2024-03-08T01:21:48;1.75;;;0.70;;
28176;SDS011;15461;41.652;9.378;2024-03-08T01:24:14;2.55;;;0.75;;
28176;SDS011;15461;41.652;9.378;2024-03-08T01:26:40;2.83;;;0.73;;
28176;SDS011;15461;41.652;9.378;2024-03-08T01:29:06;3.10;;;0.70;;
28176;SDS011;15461;41.652;9.378;2024-03-08T01:31:33;1.73;;;0.80;;
28176;SDS011;15461;41.652;9.378;2024-03-08T01:33:59;1.75;;;0.65;;
28176;SDS011;15461;41.652;9.378;2024-03-08T01:36:25;1.38;;;0.85;;
28176;SDS011;15461;41.652;9.378;2024-03-08T01:38:51;1.00;;;0.82;;
28176;SDS011;15461;41.652;9.378;2024-03-08T01:41:17;3.95;;;0.80;;
28176;SDS011;15461;41.652;9.378;2024-03-08T01:43:43;1.33;;;0.70;;
28176;SDS011;15461;41.652;9.378;2024-03-08T01:46:11;4.28;;;1.15;;
28176;SDS011;15461;41.652;9.378;2024-03-08T01:48:40;1.75;;;0.75;;
28176;SDS011;15461;41.652;9.378;2024-03-08T01:51:06;2.80;;;0.70;;
28176;SDS011;15461;41.652;9.378;2024-03-08T01:53:33;2.63;;;0.55;;
28176;SDS011;15461;41.652;9.378;2024-03-08T01:56:00;1.52;;;0.70;;
28176;SDS011;15461;41.652;9.378;2024-03-08T01:58:28;3.40;;;0.75;;
28176;SDS011;15461;41.652;9.378;2024-03-08T02:00:55;1.33;;;0.63;;
28176;SDS011;15461;41.652;9.378;2024-03-08T02:03:23;2.03;;;0.80;;
28176;SDS011;15461;41.652;9.378;2024-03-08T02:05:49;2.50;;;0.80;;
28176;SDS011;15461;41.652;9.378;2024-03-08T02:08:16;1.95;;;1.00;;
28176;SDS011;15461;41.652;9.378;2024-03-08T02:10:44;1.75;;;0.80;;
28176;SDS011;15461;41.652;9.378;2024-03-08T02:13:10;1.75;;;0.70;;
28176;SDS011;15461;41.652;9.378;2024-03-08T02:18:24;4.90;;;0.68;;
28176;SDS011;15461;41.652;9.378;2024-03-08T02:20:51;1.75;;;0.60;;
28176;SDS011;15461;41.652;9.378;2024-03-08T02:23:20;2.38;;;0.90;;
28176;SDS011;15461;41.652;9.378;2024-03-08T02:25:47;3.67;;;0.90;;
28176;SDS011;15461;41.652;9.378;2024-03-08T02:28:14;0.60;;;0.60;;
28176;SDS011;15461;41.652;9.378;2024-03-08T02:30:40;0.50;;;0.50;;
28176;SDS011;15461;41.652;9.378;2024-03-08T02:33:06;6.13;;;0.70;;
28176;SDS011;15461;41.652;9.378;2024-03-08T02:35:34;2.17;;;0.60;;
28176;SDS011;15461;41.652;9.378;2024-03-08T02:38:00;1.20;;;0.68;;
28176;SDS011;15461;41.652;9.378;2024-03-08T02:40:28;1.38;;;0.93;;
28176;SDS011;15461;41.652;9.378;2024-03-08T02:42:54;5.15;;;1.10;;
28176;SDS011;15461;41.652;9.378;2024-03-08T02:45:20;0.73;;;0.50;;
28176;SDS011;15461;41.652;9.378;2024-03-08T02:47:46;7.32;;;0.70;;
28176;SDS011;15461;41.652;9.378;2024-03-08T02:50:14;1.23;;;0.50;;
28176;SDS011;15461;41.652;9.378;2024-03-08T02:52:41;0.73;;;0.60;;
28176;SDS011;15461;41.652;9.378;2024-03-08T02:55:07;2.85;;;0.82;;
28176;SDS011;15461;41.652;9.378;2024-03-08T02:57:35;3.83;;;1.25;;
28176;SDS011;15461;41.652;9.378;2024-03-08T03:00:02;4.28;;;0.90;;
28176;SDS011;15461;41.652;9.378;2024-03-08T03:02:29;2.15;;;0.60;;
28176;SDS011;15461;41.652;9.378;2024-03-08T03:04:54;0.50;;;0.50;;
28176;SDS011;15461;41.652;9.378;2024-03-08T03:07:21;5.60;;;0.80;;
28176;SDS011;15461;41.652;9.378;2024-03-08T03:09:47;1.52;;;0.85;;
28176;SDS011;15461;41.652;9.378;2024-03-08T03:12:12;0.90;;;0.57;;
28176;SDS011;15461;41.652;9.378;2024-03-08T03:14:39;4.47;;;0.75;;
28176;SDS011;15461;41.652;9.378;2024-03-08T03:17:05;1.67;;;0.73;;
28176;SDS011;15461;41.652;9.378;2024-03-08T03:19:31;1.73;;;0.80;;
28176;SDS011;15461;41.652;9.378;2024-03-08T03:21:56;2.88;;;0.85;;
28176;SDS011;15461;41.652;9.378;2024-03-08T03:24:22;2.05;;;0.57;;
28176;SDS011;15461;41.652;9.378;2024-03-08T03:26:48;1.05;;;0.50;;
28176;SDS011;15461;41.652;9.378;2024-03-08T03:29:15;3.42;;;1.17;;
28176;SDS011;15461;41.652;9.378;2024-03-08T03:31:42;0.95;;;0.55;;
28176;SDS011;15461;41.652;9.378;2024-03-08T03:34:12;1.75;;;0.70;;
28176;SDS011;15461;41.652;9.378;2024-03-08T03:36:38;5.88;;;0.98;;
28176;SDS011;15461;41.652;9.378;2024-03-08T03:39:10;2.88;;;0.80;;
28176;SDS011;15461;41.652;9.378;2024-03-08T03:41:38;1.05;;;0.73;;
28176;SDS011;15461;41.652;9.378;2024-03-08T03:44:04;5.78;;;0.85;;
28176;SDS011;15461;41.652;9.378;2024-03-08T03:46:32;5.38;;;0.90;;
28176;SDS011;15461;41.652;9.378;2024-03-08T03:48:58;8.45;;;0.90;;
28176;SDS011;15461;41.652;9.378;2024-03-08T03:51:24;1.63;;;0.68;;
28176;SDS011;15461;41.652;9.378;2024-03-08T03:53:51;2.78;;;0.70;;
28176;SDS011;15461;41.652;9.378;2024-03-08T03:56:18;1.70;;;0.80;;
28176;SDS011;15461;41.652;9.378;2024-03-08T03:58:44;3.05;;;0.77;;
28176;SDS011;15461;41.652;9.378;2024-03-08T04:01:10;0.98;;;0.70;;
28176;SDS011;15461;41.652;9.378;2024-03-08T04:03:35;2.20;;;0.90;;
28176;SDS011;15461;41.652;9.378;2024-03-08T04:06:03;0.65;;;0.65;;
28176;SDS011;15461;41.652;9.378;2024-03-08T04:08:29;1.13;;;0.60;;
28176;SDS011;15461;41.652;9.378;2024-03-08T04:10:56;2.10;;;0.70;;
28176;SDS011;15461;41.652;9.378;2024-03-08T04:13:23;3.40;;;0.93;;
28176;SDS011;15461;41.652;9.378;2024-03-08T04:15:49;5.85;;;0.70;;
28176;SDS011;15461;41.652;9.378;2024-03-08T04:18:14;7.60;;;0.90;;
28176;SDS011;15461;41.652;9.378;2024-03-08T04:20:40;0.98;;;0.47;;
28176;SDS011;15461;41.652;9.378;2024-03-08T04:23:06;7.22;;;1.15;;
28176;SDS011;15461;41.652;9.378;2024-03-08T04:25:32;1.42;;;0.93;;
28176;SDS011;15461;41.652;9.378;2024-03-08T04:27:58;4.85;;;0.82;;
28176;SDS011;15461;41.652;9.378;2024-03-08T04:30:24;3.50;;;0.80;;
28176;SDS011;15461;41.652;9.378;2024-03-08T04:32:50;1.20;;;0.50;;
28176;SDS011;15461;41.652;9.378;2024-03-08T04:35:16;3.53;;;0.60;;
28176;SDS011;15461;41.652;9.378;2024-03-08T04:37:41;1.75;;;0.80;;
28176;SDS011;15461;41.652;9.378;2024-03-08T04:40:07;1.27;;;0.80;;
28176;SDS011;15461;41.652;9.378;2024-03-08T04:42:33;1.88;;;0.60;;
28176;SDS011;15461;41.652;9.378;2024-03-08T04:45:02;1.75;;;0.88;;
28176;SDS011;15461;41.652;9.378;2024-03-08T04:47:29;1.40;;;0.60;;
28176;SDS011;15461;41.652;9.378;2024-03-08T04:49:55;5.50;;;1.20;;
28176;SDS011;15461;41.652;9.378;2024-03-08T04:52:22;1.08;;;0.50;;
28176;SDS011;15461;41.652;9.378;2024-03-08T04:54:48;2.35;;;1.17;;
28176;SDS011;15461;41.652;9.378;2024-03-08T04:57:13;4.63;;;0.88;;
28176;SDS011;15461;41.652;9.378;2024-03-08T04:59:39;3.40;;;0.98;;
28176;SDS011;15461;41.652;9.378;2024-03-08T05:02:05;3.47;;;1.13;;
28176;SDS011;15461;41.652;9.378;2024-03-08T05:04:32;2.83;;;0.60;;
28176;SDS011;15461;41.652;9.378;2024-03-08T05:06:58;2.85;;;0.82;;
28176;SDS011;15461;41.652;9.378;2024-03-08T05:09:26;1.05;;;0.68;;
28176;SDS011;15461;41.652;9.378;2024-03-08T05:11:54;1.20;;;0.68;;
28176;SDS011;15461;41.652;9.378;2024-03-08T05:14:20;4.70;;;0.90;;
28176;SDS011;15461;41.652;9.378;2024-03-08T05:16:46;4.60;;;1.13;;
28176;SDS011;15461;41.652;9.378;2024-03-08T05:19:15;2.13;;;0.63;;
28176;SDS011;15461;41.652;9.378;2024-03-08T05:21:45;4.15;;;0.80;;
28176;SDS011;15461;41.652;9.378;2024-03-08T05:24:11;4.38;;;0.95;;
28176;SDS011;15461;41.652;9.378;2024-03-08T05:26:38;1.33;;;0.73;;
28176;SDS011;15461;41.652;9.378;2024-03-08T05:29:04;7.80;;;0.90;;
28176;SDS011;15461;41.652;9.378;2024-03-08T05:31:36;3.53;;;1.08;;
28176;SDS011;15461;41.652;9.378;2024-03-08T05:34:10;2.47;;;0.70;;
28176;SDS011;15461;41.652;9.378;2024-03-08T05:36:39;3.00;;;0.68;;
28176;SDS011;15461;41.652;9.378;2024-03-08T05:39:06;1.92;;;0.88;;
28176;SDS011;15461;41.652;9.378;2024-03-08T05:41:32;3.45;;;0.80;;
28176;SDS011;15461;41.652;9.378;2024-03-08T05:43:58;4.07;;;1.00;;
28176;SDS011;15461;41.652;9.378;2024-03-08T05:46:24;3.83;;;0.75;;
28176;SDS011;15461;41.652;9.378;2024-03-08T05:48:50;2.67;;;0.88;;
28176;SDS011;15461;41.652;9.378;2024-03-08T05:51:16;1.30;;;0.60;;
28176;SDS011;15461;41.652;9.378;2024-03-08T05:53:42;2.33;;;0.90;;
28176;SDS011;15461;41.652;9.378;2024-03-08T05:56:08;1.00;;;0.80;;
28176;SDS011;15461;41.652;9.378;2024-03-08T05:58:34;1.52;;;0.70;;
28176;SDS011;15461;41.652;9.378;2024-03-08T06:01:00;2.97;;;0.82;;
28176;SDS011;15461;41.652;9.378;2024-03-08T06:03:26;3.10;;;0.80;;
28176;SDS011;15461;41.652;9.378;2024-03-08T06:05:51;2.78;;;0.80;;
28176;SDS011;15461;41.652;9.378;2024-03-08T06:08:17;1.45;;;0.60;;
28176;SDS011;15461;41.652;9.378;2024-03-08T06:10:44;2.70;;;0.80;;
28176;SDS011;15461;41.652;9.378;2024-03-08T06:13:10;2.03;;;0.90;;
28176;SDS011;15461;41.652;9.378;2024-03-08T06:15:37;7.00;;;0.93;;
28176;SDS011;15461;41.652;9.378;2024-03-08T06:18:03;2.47;;;1.02;;
28176;SDS011;15461;41.652;9.378;2024-03-08T06:20:31;2.88;;;0.70;;
28176;SDS011;15461;41.652;9.378;2024-03-08T06:22:57;2.75;;;0.75;;
28176;SDS011;15461;41.652;9.378;2024-03-08T06:25:22;4.22;;;0.80;;
28176;SDS011;15461;41.652;9.378;2024-03-08T06:27:48;2.17;;;1.15;;
28176;SDS011;15461;41.652;9.378;2024-03-08T06:30:14;4.13;;;0.80;;
28176;SDS011;15461;41.652;9.378;2024-03-08T06:32:41;4.90;;;0.52;;
28176;SDS011;15461;41.652;9.378;2024-03-08T06:35:08;3.63;;;0.50;;
28176;SDS011;15461;41.652;9.378;2024-03-08T06:37:35;3.75;;;0.95;;
28176;SDS011;15461;41.652;9.378;2024-03-08T06:40:01;2.00;;;0.82;;
28176;SDS011;15461;41.652;9.378;2024-03-08T06:42:28;3.28;;;0.82;;
28176;SDS011;15461;41.652;9.378;2024-03-08T06:44:58;7.47;;;0.93;;
28176;SDS011;15461;41.652;9.378;2024-03-08T06:47:29;3.30;;;1.08;;
28176;SDS011;15461;41.652;9.378;2024-03-08T06:49:55;2.90;;;0.70;;
28176;SDS011;15461;41.652;9.378;2024-03-08T06:52:21;5.93;;;0.90;;
28176;SDS011;15461;41.652;9.378;2024-03-08T06:54:47;4.25;;;1.00;;
28176;SDS011;15461;41.652;9.378;2024-03-08T06:57:14;3.63;;;0.80;;
28176;SDS011;15461;41.652;9.378;2024-03-08T06:59:41;1.88;;;0.80;;
28176;SDS011;15461;41.652;9.378;2024-03-08T07:02:07;3.28;;;0.70;;
28176;SDS011;15461;41.652;9.378;2024-03-08T07:04:36;2.92;;;0.77;;
28176;SDS011;15461;41.652;9.378;2024-03-08T07:07:03;2.15;;;0.70;;
28176;SDS011;15461;41.652;9.378;2024-03-08T07:09:30;2.38;;;0.55;;
28176;SDS011;15461;41.652;9.378;2024-03-08T07:11:55;1.17;;;0.70;;
28176;SDS011;15461;41.652;9.378;2024-03-08T07:14:22;4.63;;;1.00;;
28176;SDS011;15461;41.652;9.378;2024-03-08T07:16:48;4.72;;;0.85;;
28176;SDS011;15461;41.652;9.378;2024-03-08T07:19:14;2.13;;;0.95;;
28176;SDS011;15461;41.652;9.378;2024-03-08T07:21:40;2.75;;;1.13;;
28176;SDS011;15461;41.652;9.378;2024-03-08T07:24:07;2.55;;;0.75;;
28176;SDS011;15461;41.652;9.378;2024-03-08T07:26:41;4.85;;;0.82;;
28176;SDS011;15461;41.652;9.378;2024-03-08T07:29:08;4.05;;;0.88;;
28176;SDS011;15461;41.652;9.378;2024-03-08T07:31:33;2.75;;;0.73;;
28176;SDS011;15461;41.652;9.378;2024-03-08T07:34:02;3.63;;;1.10;;
28176;SDS011;15461;41.652;9.378;2024-03-08T07:36:28;4.22;;;0.75;;
28176;SDS011;15461;41.652;9.378;2024-03-08T07:38:54;2.35;;;0.80;;
28176;SDS011;15461;41.652;9.378;2024-03-08T07:41:20;3.75;;;1.27;;
28176;SDS011;15461;41.652;9.378;2024-03-08T07:43:46;2.50;;;1.17;;
28176;SDS011;15461;41.652;9.378;2024-03-08T07:46:11;2.80;;;1.10;;
28176;SDS011;15461;41.652;9.378;2024-03-08T07:48:38;5.07;;;1.83;;
28176;SDS011;15461;41.652;9.378;2024-03-08T07:51:05;5.50;;;1.70;;
28176;SDS011;15461;41.652;9.378;2024-03-08T07:53:31;3.83;;;1.17;;
28176;SDS011;15461;41.652;9.378;2024-03-08T07:55:56;5.95;;;1.45;;
28176;SDS011;15461;41.652;9.378;2024-03-08T07:58:22;5.72;;;1.30;;
28176;SDS011;15461;41.652;9.378;2024-03-08T08:00:48;5.55;;;1.77;;
28176;SDS011;15461;41.652;9.378;2024-03-08T08:03:14;4.20;;;1.52;;
28176;SDS011;15461;41.652;9.378;2024-03-08T08:05:41;7.20;;;1.95;;
28176;SDS011;15461;41.652;9.378;2024-03-08T08:08:07;11.57;;;1.80;;
28176;SDS011;15461;41.652;9.378;2024-03-08T08:10:35;5.38;;;2.00;;
28176;SDS011;15461;41.652;9.378;2024-03-08T08:13:02;5.15;;;1.50;;
28176;SDS011;15461;41.652;9.378;2024-03-08T08:15:29;12.43;;;1.73;;
28176;SDS011;15461;41.652;9.378;2024-03-08T08:17:55;4.93;;;1.50;;
28176;SDS011;15461;41.652;9.378;2024-03-08T08:20:21;6.03;;;1.98;;
28176;SDS011;15461;41.652;9.378;2024-03-08T08:22:48;6.53;;;1.67;;
28176;SDS011;15461;41.652;9.378;2024-03-08T08:25:14;3.67;;;1.13;;
28176;SDS011;15461;41.652;9.378;2024-03-08T08:27:41;3.72;;;0.73;;
28176;SDS011;15461;41.652;9.378;2024-03-08T08:30:07;6.20;;;0.98;;
28176;SDS011;15461;41.652;9.378;2024-03-08T08:32:37;6.28;;;1.02;;
28176;SDS011;15461;41.652;9.378;2024-03-08T08:35:09;6.93;;;0.73;;
28176;SDS011;15461;41.652;9.378;2024-03-08T08:37:40;4.20;;;0.57;;
28176;SDS011;15461;41.652;9.378;2024-03-08T08:40:06;3.40;;;0.43;;
28176;SDS011;15461;41.652;9.378;2024-03-08T08:45:06;1.63;;;0.60;;
28176;SDS011;15461;41.652;9.378;2024-03-08T08:47:36;3.10;;;0.82;;
28176;SDS011;15461;41.652;9.378;2024-03-08T08:50:02;6.38;;;0.80;;
28176;SDS011;15461;41.652;9.378;2024-03-08T08:52:30;2.55;;;0.60;;
28176;SDS011;15461;41.652;9.378;2024-03-08T08:54:57;2.03;;;0.80;;
28176;SDS011;15461;41.652;9.378;2024-03-08T08:57:23;2.92;;;0.63;;
28176;SDS011;15461;41.652;9.378;2024-03-08T08:59:49;5.63;;;1.10;;
28176;SDS011;15461;41.652;9.378;2024-03-08T09:02:15;5.05;;;0.75;;
28176;SDS011;15461;41.652;9.378;2024-03-08T09:04:42;6.60;;;0.80;;
28176;SDS011;15461;41.652;9.378;2024-03-08T09:07:09;4.93;;;0.90;;
28176;SDS011;15461;41.652;9.378;2024-03-08T09:09:35;3.25;;;0.80;;
28176;SDS011;15461;41.652;9.378;2024-03-08T09:12:01;2.58;;;0.80;;
28176;SDS011;15461;41.652;9.378;2024-03-08T09:14:27;4.18;;;0.70;;
28176;SDS011;15461;41.652;9.378;2024-03-08T09:16:53;5.25;;;0.82;;
28176;SDS011;15461;41.652;9.378;2024-03-08T09:19:18;5.90;;;0.70;;
28176;SDS011;15461;41.652;9.378;2024-03-08T09:21:51;4.07;;;0.73;;
28176;SDS011;15461;41.652;9.378;2024-03-08T09:24:17;2.00;;;0.50;;
28176;SDS011;15461;41.652;9.378;2024-03-08T09:26:42;6.15;;;0.70;;
28176;SDS011;15461;41.652;9.378;2024-03-08T09:29:08;6.18;;;0.93;;
28176;SDS011;15461;41.652;9.378;2024-03-08T09:31:36;2.55;;;0.68;;
28176;SDS011;15461;41.652;9.378;2024-03-08T09:34:03;5.55;;;0.70;;
28176;SDS011;15461;41.652;9.378;2024-03-08T09:36:29;3.78;;;1.00;;
28176;SDS011;15461;41.652;9.378;2024-03-08T09:38:57;4.35;;;0.90;;
28176;SDS011;15461;41.652;9.378;2024-03-08T09:41:23;6.10;;;1.00;;
28176;SDS011;15461;41.652;9.378;2024-03-08T09:43:49;8.35;;;0.73;;
28176;SDS011;15461;41.652;9.378;2024-03-08T09:46:14;4.95;;;0.68;;
28176;SDS011;15461;41.652;9.378;2024-03-08T09:48:41;3.95;;;0.70;;
28176;SDS011;15461;41.652;9.378;2024-03-08T09:51:07;5.05;;;0.75;;
28176;SDS011;15461;41.652;9.378;2024-03-08T09:53:33;3.70;;;0.65;;
28176;SDS011;15461;41.652;9.378;2024-03-08T09:56:00;4.50;;;0.60;;
28176;SDS011;15461;41.652;9.378;2024-03-08T09:58:28;8.35;;;1.20;;
28176;SDS011;15461;41.652;9.378;2024-03-08T10:01:00;9.02;;;1.15;;
28176;SDS011;15461;41.652;9.378;2024-03-08T10:03:32;7.50;;;1.17;;
28176;SDS011;15461;41.652;9.378;2024-03-08T10:05:58;0.90;;;0.40;;
28176;SDS011;15461;41.652;9.378;2024-03-08T10:08:27;7.30;;;0.75;;
28176;SDS011;15461;41.652;9.378;2024-03-08T10:10:56;1.80;;;0.65;;
28176;SDS011;15461;41.652;9.378;2024-03-08T10:13:26;4.50;;;0.70;;
28176;SDS011;15461;41.652;9.378;2024-03-08T10:15:53;2.10;;;0.80;;
28176;SDS011;15461;41.652;9.378;2024-03-08T10:18:19;8.73;;;0.80;;
28176;SDS011;15461;41.652;9.378;2024-03-08T10:20:46;5.40;;;0.90;;
28176;SDS011;15461;41.652;9.378;2024-03-08T10:23:29;2.43;;;0.70;;
28176;SDS011;15461;41.652;9.378;2024-03-08T10:25:55;3.90;;;0.80;;
28176;SDS011;15461;41.652;9.378;2024-03-08T10:28:23;5.70;;;0.80;;
28176;SDS011;15461;41.652;9.378;2024-03-08T10:30:50;4.90;;;0.80;;
28176;SDS011;15461;41.652;9.378;2024-03-08T10:33:16;2.83;;;0.98;;
28176;SDS011;15461;41.652;9.378;2024-03-08T10:35:41;3.38;;;0.70;;
28176;SDS011;15461;41.652;9.378;2024-03-08T10:38:07;5.03;;;0.73;;
28176;SDS011;15461;41.652;9.378;2024-03-08T10:40:39;3.75;;;0.80;;
28176;SDS011;15461;41.652;9.378;2024-03-08T10:43:05;6.03;;;1.10;;
28176;SDS011;15461;41.652;9.378;2024-03-08T10:45:41;4.28;;;1.27;;
28176;SDS011;15461;41.652;9.378;2024-03-08T10:50:57;3.60;;;0.60;;
28176;SDS011;15461;41.652;9.378;2024-03-08T10:55:57;10.68;;;1.05;;
28176;SDS011;15461;41.652;9.378;2024-03-08T10:58:24;6.97;;;0.88;;
28176;SDS011;15461;41.652;9.378;2024-03-08T11:00:54;2.03;;;0.77;;
28176;SDS011;15461;41.652;9.378;2024-03-08T11:06:10;5.20;;;0.60;;
28176;SDS011;15461;41.652;9.378;2024-03-08T11:08:43;6.82;;;0.95;;
28176;SDS011;15461;41.652;9.378;2024-03-08T11:14:08;4.88;;;1.05;;
28176;SDS011;15461;41.652;9.378;2024-03-08T11:17:09;5.15;;;0.93;;
28176;SDS011;15461;41.652;9.378;2024-03-08T11:19:35;4.10;;;0.70;;
28176;SDS011;15461;41.652;9.378;2024-03-08T11:22:01;3.35;;;0.80;;
28176;SDS011;15461;41.652;9.378;2024-03-08T11:24:28;3.05;;;0.70;;
28176;SDS011;15461;41.652;9.378;2024-03-08T11:27:03;2.17;;;0.80;;
28176;SDS011;15461;41.652;9.378;2024-03-08T11:32:04;3.90;;;0.88;;
28176;SDS011;15461;41.652;9.378;2024-03-08T11:34:34;5.63;;;0.88;;
28176;SDS011;15461;41.652;9.378;2024-03-08T11:37:00;3.88;;;0.60;;
28176;SDS011;15461;41.652;9.378;2024-03-08T11:39:30;6.90;;;0.77;;
28176;SDS011;15461;41.652;9.378;2024-03-08T11:41:56;6.05;;;0.98;;
28176;SDS011;15461;41.652;9.378;2024-03-08T11:44:26;2.13;;;0.75;;
28176;SDS011;15461;41.652;9.378;2024-03-08T11:46:53;3.20;;;0.60;;
28176;SDS011;15461;41.652;9.378;2024-03-08T11:49:19;2.20;;;0.70;;
28176;SDS011;15461;41.652;9.378;2024-03-08T11:51:45;4.45;;;1.05;;
28176;SDS011;15461;41.652;9.378;2024-03-08T11:54:12;4.63;;;0.90;;
28176;SDS011;15461;41.652;9.378;2024-03-08T11:56:38;7.20;;;0.88;;
28176;SDS011;15461;41.652;9.378;2024-03-08T11:59:05;6.28;;;0.80;;
28176;SDS011;15461;41.652;9.378;2024-03-08T12:01:38;4.13;;;1.10;;
28176;SDS011;15461;41.652;9.378;2024-03-08T12:04:04;3.55;;;0.90;;
28176;SDS011;15461;41.652;9.378;2024-03-08T12:06:40;6.80;;;1.33;;
28176;SDS011;15461;41.652;9.378;2024-03-08T12:09:12;6.60;;;0.90;;
28176;SDS011;15461;41.652;9.378;2024-03-08T12:14:06;4.68;;;0.60;;
28176;SDS011;15461;41.652;9.378;2024-03-08T12:16:32;5.25;;;0.93;;
28176;SDS011;15461;41.652;9.378;2024-03-08T12:18:59;5.15;;;0.60;;
28176;SDS011;15461;41.652;9.378;2024-03-08T12:21:26;2.95;;;0.60;;
28176;SDS011;15461;41.652;9.378;2024-03-08T12:26:41;4.18;;;1.17;;
28176;SDS011;15461;41.652;9.378;2024-03-08T12:29:17;6.15;;;1.15;;
28176;SDS011;15461;41.652;9.378;2024-03-08T12:31:45;2.85;;;0.73;;
28176;SDS011;15461;41.652;9.378;2024-03-08T12:34:12;3.08;;;0.65;;
28176;SDS011;15461;41.652;9.378;2024-03-08T12:36:46;6.00;;;0.77;;
28176;SDS011;15461;41.652;9.378;2024-03-08T12:39:20;4.00;;;0.73;;
28176;SDS011;15461;41.652;9.378;2024-03-08T12:41:48;5.68;;;1.38;;
28176;SDS011;15461;41.652;9.378;2024-03-08T12:44:17;5.57;;;0.80;;
28176;SDS011;15461;41.652;9.378;2024-03-08T12:46:46;1.80;;;0.60;;
28176;SDS011;15461;41.652;9.378;2024-03-08T12:49:13;3.38;;;0.70;;
28176;SDS011;15461;41.652;9.378;2024-03-08T12:51:43;4.97;;;1.00;;
28176;SDS011;15461;41.652;9.378;2024-03-08T12:54:09;10.55;;;1.10;;
28176;SDS011;15461;41.652;9.378;2024-03-08T12:56:35;7.93;;;0.95;;
28176;SDS011;15461;41.652;9.378;2024-03-08T12:59:03;4.50;;;1.55;;
28176;SDS011;15461;41.652;9.378;2024-03-08T13:01:30;5.20;;;0.70;;
28176;SDS011;15461;41.652;9.378;2024-03-08T13:04:00;4.60;;;1.10;;
28176;SDS011;15461;41.652;9.378;2024-03-08T13:06:27;4.68;;;1.27;;
28176;SDS011;15461;41.652;9.378;2024-03-08T13:08:54;6.93;;;1.10;;
28176;SDS011;15461;41.652;9.378;2024-03-08T13:11:20;9.98;;;1.00;;
28176;SDS011;15461;41.652;9.378;2024-03-08T13:13:48;8.52;;;1.23;;
28176;SDS011;15461;41.652;9.378;2024-03-08T13:16:15;12.77;;;0.90;;
28176;SDS011;15461;41.652;9.378;2024-03-08T13:18:42;10.50;;;1.35;;
28176;SDS011;15461;41.652;9.378;2024-03-08T13:21:08;7.93;;;1.20;;
28176;SDS011;15461;41.652;9.378;2024-03-08T13:23:36;5.97;;;0.90;;
28176;SDS011;15461;41.652;9.378;2024-03-08T13:26:06;1.70;;;0.63;;
28176;SDS011;15461;41.652;9.378;2024-03-08T13:28:41;12.98;;;2.42;;
28176;SDS011;15461;41.652;9.378;2024-03-08T13:31:10;7.82;;;2.72;;
28176;SDS011;15461;41.652;9.378;2024-03-08T13:33:36;7.57;;;2.10;;
28176;SDS011;15461;41.652;9.378;2024-03-08T13:36:05;9.80;;;1.70;;
28176;SDS011;15461;41.652;9.378;2024-03-08T13:38:34;6.93;;;1.23;;
28176;SDS011;15461;41.652;9.378;2024-03-08T13:41:01;8.00;;;1.38;;
28176;SDS011;15461;41.652;9.378;2024-03-08T13:43:28;7.40;;;1.48;;
28176;SDS011;15461;41.652;9.378;2024-03-08T13:45:54;6.07;;;1.15;;
28176;SDS011;15461;41.652;9.378;2024-03-08T13:48:20;9.15;;;1.63;;
28176;SDS011;15461;41.652;9.378;2024-03-08T13:50:47;8.07;;;1.70;;
28176;SDS011;15461;41.652;9.378;2024-03-08T13:53:15;17.30;;;2.30;;
28176;SDS011;15461;41.652;9.378;2024-03-08T13:55:41;4.55;;;1.20;;
28176;SDS011;15461;41.652;9.378;2024-03-08T13:58:06;3.30;;;0.90;;
28176;SDS011;15461;41.652;9.378;2024-03-08T14:00:37;13.43;;;1.60;;
28176;SDS011;15461;41.652;9.378;2024-03-08T14:03:03;6.32;;;1.17;;
28176;SDS011;15461;41.652;9.378;2024-03-08T14:05:31;6.15;;;1.20;;
28176;SDS011;15461;41.652;9.378;2024-03-08T14:08:00;4.93;;;1.10;;
28176;SDS011;15461;41.652;9.378;2024-03-08T14:10:29;14.68;;;1.90;;
28176;SDS011;15461;41.652;9.378;2024-03-08T14:12:59;3.40;;;1.27;;
28176;SDS011;15461;41.652;9.378;2024-03-08T14:15:25;6.80;;;1.13;;
28176;SDS011;15461;41.652;9.378;2024-03-08T14:17:54;6.50;;;1.75;;
28176;SDS011;15461;41.652;9.378;2024-03-08T14:20:21;6.68;;;1.20;;
28176;SDS011;15461;41.652;9.378;2024-03-08T14:22:53;11.88;;;1.55;;
28176;SDS011;15461;41.652;9.378;2024-03-08T14:25:22;6.00;;;1.38;;
28176;SDS011;15461;41.652;9.378;2024-03-08T14:27:49;12.32;;;1.20;;
28176;SDS011;15461;41.652;9.378;2024-03-08T14:30:19;8.07;;;1.20;;
28176;SDS011;15461;41.652;9.378;2024-03-08T14:33:06;10.35;;;1.85;;
28176;SDS011;15461;41.652;9.378;2024-03-08T14:35:37;3.78;;;0.93;;
28176;SDS011;15461;41.652;9.378;2024-03-08T14:38:04;12.90;;;1.42;;
28176;SDS011;15461;41.652;9.378;2024-03-08T14:40:33;15.40;;;1.48;;
28176;SDS011;15461;41.652;9.378;2024-03-08T14:42:59;9.30;;;1.27;;
28176;SDS011;15461;41.652;9.378;2024-03-08T14:45:26;10.15;;;1.20;;
28176;SDS011;15461;41.652;9.378;2024-03-08T14:47:51;7.35;;;1.20;;
28176;SDS011;15461;41.652;9.378;2024-03-08T14:50:18;9.40;;;1.17;;
28176;SDS011;15461;41.652;9.378;2024-03-08T14:52:48;12.43;;;1.27;;
28176;SDS011;15461;41.652;9.378;2024-03-08T14:55:18;6.88;;;1.55;;
28176;SDS011;15461;41.652;9.378;2024-03-08T14:57:50;7.88;;;1.23;;
28176;SDS011;15461;41.652;9.378;2024-03-08T15:00:17;9.73;;;1.52;;
28176;SDS011;15461;41.652;9.378;2024-03-08T15:02:59;12.63;;;1.73;;
28176;SDS011;15461;41.652;9.378;2024-03-08T15:05:25;12.65;;;1.38;;
28176;SDS011;15461;41.652;9.378;2024-03-08T15:07:57;10.07;;;1.50;;
28176;SDS011;15461;41.652;9.378;2024-03-08T15:10:26;10.50;;;1.45;;
28176;SDS011;15461;41.652;9.378;2024-03-08T15:12:54;11.85;;;1.13;;